Time;durP1;ratioP1;P1;durP2;ratioP2;P2;SDS_P1;SDS_P2;PMS_P1;PMS_P2;Temp;Humidity;BMP_temperature;BMP_pressure;BME280_temperature;BME280_humidity;BME280_pressure;Samples;Min_cycle;Max_cycle;Signal;HPM_P1;HPM_P2
2023/10/09 00:01:24;;;;;;;;;;;;;;;-145.06;0.00;60892.56;6007478;23;19911;-89
2023/10/09 00:04:04;;;;;;;;;;;;;;;-145.06;0.00;60892.56;5996631;23;19912;-89
2023/10/09 00:06:43;;;;;;;;;;;;;;;-145.06;0.00;60892.56;5997580;23;19912;-91
2023/10/09 00:12:10;;;;;;;;;;;;;;;-145.06;0.00;60892.56;6007127;23;19907;-89
2023/10/09 00:14:50;;;;;;;;;;;;;;;-145.06;0.00;60892.56;5995924;23;19916;-90
2023/10/09 00:17:31;;;;;;;;;;;;;;;-145.06;0.00;60892.56;5996425;23;19912;-88
2023/10/09 00:20:21;;;;;;;;;;;;;;;-145.06;0.00;60892.56;5995900;23;19912;-90
2023/10/09 00:23:00;;;;;;;;;;;;;;;-145.06;0.00;60892.56;5995017;23;19911;-90
2023/10/09 00:25:46;;;;;;;;;;;;;;;-145.06;0.00;60892.56;5999261;23;19908;-90
2023/10/09 00:28:25;;;;;;;;;;;;;;;-145.06;0.00;60892.56;5996012;23;19908;-89
2023/10/09 00:31:06;;;;;;;;;;;;;;;-145.06;0.00;60892.56;5994261;23;20372;-89
2023/10/09 00:33:45;;;;;;;;;;;;;;;-145.06;0.00;60892.56;5994801;23;20331;-89
2023/10/09 00:36:28;;;;;;;;;;;;;;;-145.06;0.00;60892.56;5996399;23;19927;-88
2023/10/09 00:39:18;;;;;;;;;;;;;;;-145.06;0.00;60892.56;5995756;23;19912;-89
2023/10/09 00:41:58;;;;;;;;;;;;;;;-145.06;0.00;60892.56;5997184;23;19908;-90
2023/10/09 00:44:38;;;;;;;;;;;;;;;-145.06;0.00;60892.56;5995990;23;19912;-91
2023/10/09 00:47:20;;;;;;;;;;;;;;;-145.06;0.00;60892.56;5994448;23;19935;-90
2023/10/09 00:53:04;;;;;;;;;;;;;;;-145.06;0.00;60892.56;6007014;23;20228;-90
2023/10/09 00:55:55;;;;;;;;;;;;;;;-145.06;0.00;60892.56;5997335;23;20092;-90
2023/10/09 00:58:36;;;;;;;;;;;;;;;-145.06;0.00;60892.56;5995534;23;19912;-90
2023/10/09 01:01:16;;;;;;;;;;;;;;;-145.06;0.00;60892.56;5995718;23;19908;-90
2023/10/09 01:03:54;;;;;;;;;;;;;;;-145.06;0.00;60892.56;5994878;23;19912;-90
2023/10/09 01:06:33;;;;;;;;;;;;;;;-145.06;0.00;60892.56;5995089;23;19912;-91
2023/10/09 01:09:22;;;;;;;;;;;;;;;-145.06;0.00;60892.56;5995517;23;19908;-91
2023/10/09 01:14:43;;;;;;;;;;;;;;;-145.06;0.00;60892.56;6006144;23;19912;-90
2023/10/09 01:17:35;;;;;;;;;;;;;;;-145.06;0.00;60892.56;5997374;23;19935;-91
2023/10/09 01:20:27;;;;;;;;;;;;;;;-145.06;0.00;60892.56;5996699;23;19912;-91
2023/10/09 01:23:07;;;;;;;;;;;;;;;-145.06;0.00;60892.56;5996067;23;19915;-90
2023/10/09 01:25:49;;;;;;;;;;;;;;;-145.06;0.00;60892.56;5996693;23;19994;-91
2023/10/09 01:28:28;;;;;;;;;;;;;;;-145.06;0.00;60892.56;6005832;23;19916;-91
2023/10/09 01:31:08;;;;;;;;;;;;;;;-145.06;0.00;60892.56;5995262;23;19912;-90
2023/10/09 01:33:47;;;;;;;;;;;;;;;-145.06;0.00;60892.56;5996523;23;19908;-92
2023/10/09 01:36:32;;;;;;;;;;;;;;;-145.06;0.00;60892.56;5995682;23;19927;-92
2023/10/09 01:39:26;;;;;;;;;;;;;;;-145.06;0.00;60892.56;5996220;23;19908;-92
2023/10/09 01:42:05;;;;;;;;;;;;;;;-145.06;0.00;60892.56;5996315;23;19908;-91
2023/10/09 01:44:47;;;;;;;;;;;;;;;-145.06;0.00;60892.56;5996224;23;19912;-91
2023/10/09 01:47:31;;;;;;;;;;;;;;;-145.06;0.00;60892.56;5994885;23;19911;-91
2023/10/09 01:50:20;;;;;;;;;;;;;;;-145.06;0.00;60892.56;5995478;23;20342;-91
2023/10/09 01:53:02;;;;;;;;;;;;;;;-145.06;0.00;60892.56;5995992;23;19912;-91
2023/10/09 01:55:45;;;;;;;;;;;;;;;-145.06;0.00;60892.56;5995646;23;19979;-91
2023/10/09 01:58:32;;;;;;;;;;;;;;;-145.06;0.00;60892.56;6006288;23;20380;-91
2023/10/09 02:01:12;;;;;;;;;;;;;;;-145.06;0.00;60892.56;5994748;23;20331;-90
2023/10/09 02:03:51;;;;;;;;;;;;;;;-145.06;0.00;60892.56;5994537;23;19916;-92
2023/10/09 02:06:32;;;;;;;;;;;;;;;-145.06;0.00;60892.56;5996191;23;19908;-92
2023/10/09 02:09:20;;;;;;;;;;;;;;;-145.06;0.00;60892.56;5996332;23;19908;-91
2023/10/09 02:12:00;;;;;;;;;;;;;;;-145.06;0.00;60892.56;5996119;23;19944;-90
2023/10/09 02:14:41;;;;;;;;;;;;;;;-145.06;0.00;60892.56;5995155;23;19912;-90
2023/10/09 02:17:24;;;;;;;;;;;;;;;-145.06;0.00;60892.56;5994832;23;19931;-91
2023/10/09 02:20:17;;;;;;;;;;;;;;;-145.06;0.00;60892.56;5995981;23;19932;-90
2023/10/09 02:22:57;;;;;;;;;;;;;;;-145.06;0.00;60892.56;5994286;23;19912;-89
2023/10/09 02:25:36;;;;;;;;;;;;;;;-145.06;0.00;60892.56;5995455;23;19908;-89
2023/10/09 02:28:17;;;;;;;;;;;;;;;-145.06;0.00;60892.56;6008064;23;19988;-90
2023/10/09 02:31:00;;;;;;;;;;;;;;;19.46;0.00;60892.56;6005151;23;19907;-89
2023/10/09 02:33:39;;;;;;;;;;;;;;;19.47;0.00;60892.56;5994397;23;19908;-89
2023/10/09 02:36:18;;;;;;;;;;;;;;;19.47;0.00;60892.56;5995319;23;19995;-90
2023/10/09 02:39:00;;;;;;;;;;;;;;;19.48;0.00;60892.56;5996089;23;19915;-90
2023/10/09 02:41:49;;;;;;;;;;;;;;;19.49;0.00;60892.56;5997587;23;19908;-92
2023/10/09 02:44:32;;;;;;;;;;;;;;;-145.06;0.00;60892.56;5997067;23;19920;-89
2023/10/09 02:47:17;;;;;;;;;;;;;;;19.50;0.00;60892.56;5996219;23;19943;-88
2023/10/09 02:50:01;;;;;;;;;;;;;;;19.49;0.00;60892.56;5996089;23;19908;-89
2023/10/09 02:52:40;;;;;;;;;;;;;;;19.48;0.00;60892.56;5995284;23;19908;-88
2023/10/09 02:55:25;;;;;;;;;;;;;;;19.46;0.00;60892.56;5996865;23;20224;-89
2023/10/09 02:58:07;;;;;;;;;;;;;;;-145.06;0.00;60892.56;5998330;23;19912;-90
2023/10/09 03:00:48;;;;;;;;;;;;;;;-145.06;0.00;60892.56;5996133;23;19956;-89
2023/10/09 03:03:28;;;;;;;;;;;;;;;-145.06;0.00;60892.56;5995070;23;19912;-90
2023/10/09 03:06:11;;;;;;;;;;;;;;;-145.06;0.00;60892.56;5996836;23;19983;-91
2023/10/09 03:08:50;;;;;;;;;;;;;;;-145.06;0.00;60892.56;5995103;23;19933;-92
2023/10/09 03:11:32;;;;;;;;;;;;;;;-145.06;0.00;60892.56;5995576;23;19912;-91
2023/10/09 03:14:11;;;;;;;;;;;;;;;-145.06;0.00;60892.56;5998870;23;19912;-90
2023/10/09 03:16:50;;;;;;;;;;;;;;;-145.06;0.00;60892.56;5994403;23;19940;-91
2023/10/09 03:19:29;;;;;;;;;;;;;;;-145.06;0.00;60892.56;5995016;23;20319;-91
2023/10/09 03:22:11;;;;;;;;;;;;;;;-145.06;0.00;60892.56;5996661;23;20363;-90
2023/10/09 03:24:52;;;;;;;;;;;;;;;-145.06;0.00;60892.56;5995631;23;20327;-92
2023/10/09 03:27:31;;;;;;;;;;;;;;;-145.06;0.00;60892.56;5997523;23;19908;-90
2023/10/09 03:30:16;;;;;;;;;;;;;;;-145.06;0.00;60892.56;5995241;23;19908;-90
2023/10/09 03:32:55;;;;;;;;;;;;;;;-145.06;0.00;60892.56;5994736;23;19927;-89
2023/10/09 03:35:36;;;;;;;;;;;;;;;-145.06;0.00;60892.56;5996149;23;19955;-90
2023/10/09 03:38:18;;;;;;;;;;;;;;;-145.06;0.00;60892.56;5995805;23;19908;-91
2023/10/09 03:40:57;;;;;;;;;;;;;;;-145.06;0.00;60892.56;5996510;23;19908;-91
2023/10/09 03:43:41;;;;;;;;;;;;;;;-145.06;0.00;60892.56;5996911;23;19912;-91
2023/10/09 03:46:44;;;;;;;;;;;;;;;-145.06;0.00;60892.56;5996308;23;20251;-90
2023/10/09 03:49:23;;;;;;;;;;;;;;;-145.06;0.00;60892.56;5997238;23;19935;-90
2023/10/09 03:52:02;;;;;;;;;;;;;;;-145.06;0.00;60892.56;5994758;23;20327;-90
2023/10/09 03:54:44;;;;;;;;;;;;;;;-145.06;0.00;60892.56;5996335;23;19912;-91
2023/10/09 03:57:24;;;;;;;;;;;;;;;-145.06;0.00;60892.56;5995750;23;19943;-91
2023/10/09 04:00:11;;;;;;;;;;;;;;;-145.06;0.00;60892.56;5996622;23;20244;-90
2023/10/09 04:02:50;;;;;;;;;;;;;;;-145.06;0.00;60892.56;5996699;23;19916;-90
2023/10/09 04:05:29;;;;;;;;;;;;;;;-145.06;0.00;60892.56;5998024;23;19912;-89
2023/10/09 04:08:12;;;;;;;;;;;;;;;-145.06;0.00;60892.56;5996120;23;19912;-89
2023/10/09 04:10:51;;;;;;;;;;;;;;;-145.06;0.00;60892.56;5995713;23;19936;-89
2023/10/09 04:13:36;;;;;;;;;;;;;;;-145.06;0.00;60892.56;5999040;23;19908;-89
2023/10/09 04:19:13;;;;;;;;;;;;;;;-145.06;0.00;60892.56;6007219;23;19932;-91
2023/10/09 04:21:55;;;;;;;;;;;;;;;-145.06;0.00;60892.56;5994489;23;19908;-89
2023/10/09 04:24:41;;;;;;;;;;;;;;;-145.06;0.00;60892.56;5995784;23;19912;-88
2023/10/09 04:27:35;;;;;;;;;;;;;;;-145.06;0.00;60892.56;5995922;23;20228;-89
2023/10/09 04:30:15;;;;;;;;;;;;;;;-145.06;0.00;60892.56;5997377;23;19911;-88
2023/10/09 04:32:59;;;;;;;;;;;;;;;-145.06;0.00;60892.56;5996063;23;19911;-90
2023/10/09 04:35:38;;;;;;;;;;;;;;;-145.06;0.00;60892.56;5996006;23;19912;-91
2023/10/09 04:38:17;;;;;;;;;;;;;;;-145.06;0.00;60892.56;5995441;23;19912;-90
2023/10/09 04:40:59;;;;;;;;;;;;;;;-145.06;0.00;60892.56;5995011;23;19907;-90
2023/10/09 04:43:59;;;;;;;;;;;;;;;;;;;;;
2023/10/09 04:46:43;;;;;;;;;;;;;;;-145.06;0.00;60892.56;5995523;23;19912;-90
2023/10/09 04:49:28;;;;;;;;;;;;;;;-145.06;0.00;60892.56;5995086;23;19912;-90
2023/10/09 04:52:18;;;;;;;;;;;;;;;-145.06;0.00;60892.56;5995016;23;19912;-89
2023/10/09 04:58:00;;;;;;;;;;;;;;;-145.06;0.00;60892.56;6007356;23;19935;-90
2023/10/09 05:03:28;;;;;;;;;;;;;;;-145.06;0.00;60892.56;6005891;23;19908;-91
2023/10/09 05:09:08;;;;;;;;;;;;;;;-145.06;0.00;60892.56;6007276;23;19912;-91
2023/10/09 05:11:53;;;;;;;;;;;;;;;-145.06;0.00;60892.56;5995922;23;19920;-91
2023/10/09 05:14:38;;;;;;;;;;;;;;;-145.06;0.00;60892.56;5995405;23;19912;-91
2023/10/09 05:17:17;;;;;;;;;;;;;;;-145.06;0.00;60892.56;5996270;23;20187;-92
2023/10/09 05:20:55;;;;;;;;;;;;;;;-145.06;0.00;60892.56;5994505;23;19931;-90
2023/10/09 05:22:58;;;;;;;;;;;;;;;-145.06;0.00;60892.56;5995158;23;19979;-91
2023/10/09 05:25:58;;;;;;;;;;;;;;;-145.06;0.00;60892.56;5994546;23;19959;-91
2023/10/09 05:28:52;;;;;;;;;;;;;;;-145.06;0.00;60892.56;5995634;23;19912;-90
2023/10/09 05:37:32;;;;;;;;;;;;;;;-145.06;0.00;60892.56;6004185;23;19911;-89
2023/10/09 05:43:02;;;;;;;;;;;;;;;-145.06;0.00;60892.56;6003748;23;19931;-91
2023/10/09 06:19:58;;;;;;;;;;;;;;;-145.06;0.00;60892.56;6003612;23;20367;-90
2023/10/09 06:25:39;;;;;;;;;;;;;;;-145.06;0.00;60892.56;6006423;23;19911;-89
2023/10/09 06:28:19;;;;;;;;;;;;;;;-145.06;0.00;60892.56;5994873;23;19912;-90
2023/10/09 06:31:27;;;;;;;;;;;;;;;-145.06;0.00;60892.56;5994362;23;20385;-90
2023/10/09 06:34:15;;;;;;;;;;;;;;;-145.06;0.00;60892.56;5995765;23;19912;-90
2023/10/09 06:36:54;;;;;;;;;;;;;;;-145.06;0.00;60892.56;5994589;23;19908;-90
2023/10/09 06:45:17;;;;;;;;;;;;;;;-145.06;0.00;60892.56;6008107;23;19916;-90
2023/10/09 06:48:07;;;;;;;;;;;;;;;-145.06;0.00;60892.56;5997039;23;19978;-90
2023/10/09 06:51:03;;;;;;;;;;;;;;;-145.06;0.00;60892.56;5995460;23;19911;-90
2023/10/09 06:59:23;;;;;;;;;;;;;;;-145.06;0.00;60892.56;6006652;23;19908;-92
2023/10/09 07:05:10;;;;;;;;;;;;;;;-145.06;0.00;60892.56;6005752;23;20342;-89
2023/10/09 07:07:54;;;;;;;;;;;;;;;-145.06;0.00;60892.56;5992449;23;19912;-91
2023/10/09 07:10:39;;;;;;;;;;;;;;;-145.06;0.00;60892.56;6005972;23;19912;-89
2023/10/09 07:13:18;;;;;;;;;;;;;;;-145.06;0.00;60892.56;5994590;23;19912;-89
2023/10/09 07:19:09;;;;;;;;;;;;;;;-145.06;0.00;60892.56;6006053;23;20323;-90
2023/10/09 07:21:53;;;;;;;;;;;;;;;-145.06;0.00;60892.56;5995875;23;19911;-91
2023/10/09 07:24:43;;;;;;;;;;;;;;;-145.06;0.00;60892.56;5994289;23;19912;-89
2023/10/09 07:35:57;;;;;;;;;;;;;;;-145.06;0.00;60892.56;6004761;23;19916;-88
2023/10/09 07:38:35;;;;;;;;;;;;;;;-145.06;0.00;60892.56;5996686;23;19952;-89
2023/10/09 07:43:56;;;;;;;;;;;;;;;-145.06;0.00;60892.56;6005177;23;19915;-88
2023/10/09 07:49:37;;;;;;;;;;;;;;;-145.06;0.00;60892.56;5970051;23;19982;-89
2023/10/09 07:52:16;;;;;;;;;;;;;;;-145.06;0.00;60892.56;5991884;23;19911;-90
2023/10/09 07:55:25;;;;;;;;;;;;;;;-145.06;0.00;60892.56;5989957;23;19907;-93
2023/10/09 07:58:10;;;;;;;;;;;;;;;-145.06;0.00;60892.56;5973043;23;19911;-89
2023/10/09 08:01:06;;;;;;;;;;;;;;;-145.06;0.00;60892.56;5992245;23;20376;-90
2023/10/09 08:03:57;;;;;;;;;;;;;;;-145.06;0.00;60892.56;5994434;23;19915;-89
2023/10/09 08:06:44;;;;;;;;;;;;;;;-145.06;0.00;60892.56;5992992;23;19907;-89
2023/10/09 08:09:46;;;;;;;;;;;;;;;-145.06;0.00;60892.56;5993335;23;19912;-89
2023/10/09 08:15:20;;;;;;;;;;;;;;;-145.06;0.00;60892.56;6006234;23;19916;-90
2023/10/09 08:18:18;;;;;;;;;;;;;;;-145.06;0.00;60892.56;6001409;23;19915;-89
2023/10/09 08:23:48;;;;;;;;;;;;;;;-145.06;0.00;60892.56;6004545;23;19912;-89
2023/10/09 08:26:32;;;;;;;;;;;;;;;-145.06;0.00;60892.56;5994820;23;19907;-89
2023/10/09 08:29:34;;;;;;;;;;;;;;;-145.06;0.00;60892.56;5993630;23;19912;-90
2023/10/09 08:32:38;;;;;;;;;;;;;;;-145.06;0.00;60892.56;5994472;23;19911;-89
2023/10/09 08:35:30;;;;;;;;;;;;;;;-145.06;0.00;60892.56;5991635;23;19908;-89
2023/10/09 08:38:10;;;;;;;;;;;;;;;-145.06;0.00;60892.56;5991566;23;19912;-89
2023/10/09 08:40:50;;;;;;;;;;;;;;;-145.06;0.00;60892.56;5993884;23;19911;-90
2023/10/09 08:43:32;;;;;;;;;;;;;;;-145.06;0.00;60892.56;6001955;23;19916;-89
2023/10/09 08:46:13;;;;;;;;;;;;;;;-145.06;0.00;60892.56;5993849;23;19912;-90
2023/10/09 08:48:54;;;;;;;;;;;;;;;-145.06;0.00;60892.56;5999981;23;19931;-89
2023/10/09 08:51:35;;;;;;;;;;;;;;;-145.06;0.00;60892.56;6003552;23;19912;-90
2023/10/09 08:54:14;;;;;;;;;;;;;;;-145.06;0.00;60892.56;5994258;23;19912;-90
2023/10/09 08:56:56;;;;;;;;;;;;;;;-145.06;0.00;60892.56;5992345;23;19911;-90
2023/10/09 08:59:40;;;;;;;;;;;;;;;-145.06;0.00;60892.56;5994057;23;19911;-89
2023/10/09 09:02:21;;;;;;;;;;;;;;;19.45;0.00;60892.56;5993156;23;19912;-90
2023/10/09 09:05:15;;;;;;;;;;;;;;;19.50;0.00;60892.56;5991624;23;19920;-89
2023/10/09 09:07:59;;;;;;;;;;;;;;;19.54;0.00;60892.56;6003493;23;19908;-89
2023/10/09 09:10:46;;;;;;;;;;;;;;;19.59;0.00;60892.56;5994511;23;20062;-90
2023/10/09 09:13:31;;;;;;;;;;;;;;;19.64;0.00;60892.56;5993770;23;19908;-89
2023/10/09 09:16:15;;;;;;;;;;;;;;;-145.06;0.00;60892.56;5993503;23;19907;-89
2023/10/09 09:19:05;;;;;;;;;;;;;;;19.74;0.00;104794.97;5992477;23;20346;-89
2023/10/09 09:21:49;;;;;;;;;;;;;;;-145.06;0.00;60892.56;5989578;23;19908;-89
2023/10/09 09:24:30;;;;;;;;;;;;;;;-145.06;0.00;60892.56;5992449;23;19916;-90
2023/10/09 09:27:12;;;;;;;;;;;;;;;-145.06;0.00;60892.56;5990357;23;19908;-89
2023/10/09 09:29:54;;;;;;;;;;;;;;;-145.06;0.00;60892.56;5995732;23;19907;-90
2023/10/09 09:32:36;;;;;;;;;;;;;;;-145.06;0.00;60892.56;5994254;23;19912;-90
2023/10/09 09:35:19;;;;;;;;;;;;;;;-145.06;0.00;60892.56;5993728;23;19927;-88
2023/10/09 09:38:04;;;;;;;;;;;;;;;-145.06;0.00;60892.56;5993662;23;19916;-89
2023/10/09 09:40:43;;;;;;;;;;;;;;;-145.06;0.00;60892.56;6003939;23;19908;-89
2023/10/09 09:43:22;;;;;;;;;;;;;;;-145.06;0.00;60892.56;5993639;23;19912;-89
2023/10/09 09:46:07;;;;;;;;;;;;;;;-145.06;0.00;60892.56;6003885;23;19912;-89
2023/10/09 09:48:47;;;;;;;;;;;;;;;-145.06;0.00;60892.56;5992685;23;19907;-89
2023/10/09 09:51:29;;;;;;;;;;;;;;;-145.06;0.00;60892.56;5991778;23;19908;-89
2023/10/09 09:54:10;;;;;;;;;;;;;;;-145.06;0.00;60892.56;5993398;23;19912;-89
2023/10/09 09:56:51;;;;;;;;;;;;;;;-145.06;0.00;60892.56;6004569;23;20359;-90
2023/10/09 09:59:31;;;;;;;;;;;;;;;-145.06;0.00;60892.56;6007217;23;19908;-89
2023/10/09 10:02:17;;;;;;;;;;;;;;;-145.06;0.00;60892.56;5993575;23;19907;-89
2023/10/09 10:04:58;;;;;;;;;;;;;;;-145.06;0.00;60892.56;5989870;23;20370;-90
2023/10/09 10:07:42;;;;;;;;;;;;;;;21.01;0.00;60892.56;6005041;23;20074;-90
2023/10/09 10:10:38;;;;;;;;;;;;;;;-145.06;0.00;60892.56;5990735;23;19995;-89
2023/10/09 10:13:27;;;;;;;;;;;;;;;-145.06;0.00;60892.56;5993176;23;20331;-89
2023/10/09 10:16:19;;;;;;;;;;;;;;;-145.06;0.00;60892.56;5991964;23;19908;-90
2023/10/09 10:19:36;;;;;;;;;;;;;;;-145.06;0.00;60892.56;5995060;23;19912;-90
2023/10/09 10:22:27;;;;;;;;;;;;;;;-145.06;0.00;60892.56;5994269;23;19987;-88
2023/10/09 10:25:09;;;;;;;;;;;;;;;-145.06;0.00;60892.56;5992420;23;19916;-88
2023/10/09 10:28:11;;;;;;;;;;;;;;;-145.06;0.00;60892.56;5993250;23;19908;-89
2023/10/09 10:30:51;;;;;;;;;;;;;;;-145.06;0.00;60892.56;5994233;23;19908;-89
2023/10/09 10:33:53;;;;;;;;;;;;;;;-145.06;0.00;60892.56;5992795;23;20244;-90
2023/10/09 10:36:34;;;;;;;;;;;;;;;-145.06;0.00;60892.56;5992804;23;19912;-91
2023/10/09 10:41:57;;;;;;;;;;;;;;;-145.06;0.00;60892.56;6001263;23;19908;-89
2023/10/09 10:44:37;;;;;;;;;;;;;;;-145.06;0.00;60892.56;5992215;23;19931;-89
2023/10/09 10:47:32;;;;;;;;;;;;;;;-145.06;0.00;60892.56;5991574;23;19908;-89
2023/10/09 10:53:14;;;;;;;;;;;;;;;-145.06;0.00;60892.56;6001658;23;19942;-89
2023/10/09 10:56:34;;;;;;;;;;;;;;;-145.06;0.00;60892.56;5990463;23;19912;-89
2023/10/09 10:59:45;;;;;;;;;;;;;;;-145.06;0.00;60892.56;5991531;23;19912;-89
2023/10/09 11:04:41;;;;;;;;;;;;;;;-145.06;0.00;60892.56;6005404;23;19959;-89
2023/10/09 11:07:24;;;;;;;;;;;;;;;-145.06;0.00;60892.56;5994491;23;19908;-88
2023/10/09 11:15:46;;;;;;;;;;;;;;;-145.06;0.00;60892.56;6004586;23;19991;-90
2023/10/09 11:18:26;;;;;;;;;;;;;;;-145.06;0.00;60892.56;5992800;23;19912;-89
2023/10/09 11:26:31;;;;;;;;;;;;;;;-145.06;0.00;60892.56;6005942;23;20231;-89
2023/10/09 11:29:14;;;;;;;;;;;;;;;-145.06;0.00;60892.56;5994663;23;19908;-88
2023/10/09 11:31:57;;;;;;;;;;;;;;;-145.06;0.00;60892.56;5992056;23;19912;-89
2023/10/09 11:34:37;;;;;;;;;;;;;;;-145.06;0.00;60892.56;5993425;23;19912;-89
2023/10/09 11:37:16;;;;;;;;;;;;;;;-145.06;0.00;60892.56;5994796;23;19912;-89
2023/10/09 11:39:55;;;;;;;;;;;;;;;-145.06;0.00;60892.56;5992304;23;19935;-89
2023/10/09 11:45:29;;;;;;;;;;;;;;;-145.06;0.00;60892.56;6006052;23;20378;-88
2023/10/09 11:48:33;;;;;;;;;;;;;;;23.47;0.00;60892.56;5992979;23;19908;-89
2023/10/09 11:51:18;;;;;;;;;;;;;;;23.46;0.00;60892.56;5993942;23;19911;-89
2023/10/09 11:53:59;;;;;;;;;;;;;;;-145.06;0.00;60892.56;5993968;23;19912;-90
2023/10/09 11:56:38;;;;;;;;;;;;;;;-145.06;0.00;60892.56;6003407;23;19948;-89
2023/10/09 11:59:17;;;;;;;;;;;;;;;23.57;0.00;60892.56;5994315;23;19912;-89
2023/10/09 12:02:00;;;;;;;;;;;;;;;23.57;0.00;60892.56;5992559;23;19908;-90
2023/10/09 12:04:43;;;;;;;;;;;;;;;23.60;0.00;60892.56;5993979;23;20235;-90
2023/10/09 12:07:25;;;;;;;;;;;;;;;23.62;0.00;60892.56;5994134;23;19911;-90
2023/10/09 12:10:05;;;;;;;;;;;;;;;23.63;0.00;104794.97;5994015;23;19912;-90
2023/10/09 12:12:46;;;;;;;;;;;;;;;23.63;0.00;60892.56;5996168;23;19908;-89
2023/10/09 12:15:25;;;;;;;;;;;;;;;23.65;0.00;60892.56;5994078;23;19916;-89
2023/10/09 12:18:06;;;;;;;;;;;;;;;23.66;0.00;60892.56;6003206;23;19908;-89
2023/10/09 12:20:51;;;;;;;;;;;;;;;-145.06;0.00;60892.56;5994818;23;19911;-89
2023/10/09 12:23:35;;;;;;;;;;;;;;;-145.06;0.00;60892.56;6005952;23;19944;-89
2023/10/09 12:26:14;;;;;;;;;;;;;;;-145.06;0.00;60892.56;5993162;23;19927;-89
2023/10/09 12:28:53;;;;;;;;;;;;;;;-145.06;0.00;60892.56;5995724;23;19912;-89
2023/10/09 12:31:33;;;;;;;;;;;;;;;-145.06;0.00;60892.56;6005649;23;20021;-89
2023/10/09 12:34:16;;;;;;;;;;;;;;;-145.06;0.00;60892.56;6007061;23;19911;-89
2023/10/09 12:36:55;;;;;;;;;;;;;;;-145.06;0.00;60892.56;5992526;23;19908;-89
2023/10/09 12:39:34;;;;;;;;;;;;;;;-145.06;0.00;60892.56;6005100;23;19908;-88
2023/10/09 12:42:13;;;;;;;;;;;;;;;-145.06;0.00;60892.56;5993934;23;20296;-89
2023/10/09 12:44:52;;;;;;;;;;;;;;;-145.06;0.00;60892.56;6006378;23;19915;-89
2023/10/09 12:47:32;;;;;;;;;;;;;;;-145.06;0.00;60892.56;5993307;23;19935;-89
2023/10/09 12:50:13;;;;;;;;;;;;;;;-145.06;0.00;60892.56;5991034;23;19908;-89
2023/10/09 12:53:01;;;;;;;;;;;;;;;-145.06;0.00;60892.56;5993812;23;19911;-89
2023/10/09 12:55:43;;;;;;;;;;;;;;;-145.06;0.00;60892.56;5993960;23;19908;-90
2023/10/09 12:58:26;;;;;;;;;;;;;;;-145.06;0.00;60892.56;5994422;23;19982;-89
2023/10/09 13:01:11;;;;;;;;;;;;;;;-145.06;0.00;60892.56;5992694;23;19912;-90
2023/10/09 13:03:50;;;;;;;;;;;;;;;-145.06;0.00;60892.56;6003119;23;19911;-89
2023/10/09 13:06:29;;;;;;;;;;;;;;;-145.06;0.00;60892.56;5994368;23;19908;-90
2023/10/09 13:09:08;;;;;;;;;;;;;;;-145.06;0.00;60892.56;5994191;23;19916;-90
2023/10/09 13:11:49;;;;;;;;;;;;;;;-145.06;0.00;60892.56;5994136;23;19912;-90
2023/10/09 13:14:28;;;;;;;;;;;;;;;-145.06;0.00;60892.56;5991902;23;19951;-90
2023/10/09 13:17:10;;;;;;;;;;;;;;;-145.06;0.00;60892.56;5993218;23;19908;-89
2023/10/09 13:19:49;;;;;;;;;;;;;;;-145.06;0.00;60892.56;5992563;23;19943;-90
2023/10/09 13:22:30;;;;;;;;;;;;;;;-145.06;0.00;60892.56;5992469;23;20378;-90
2023/10/09 13:25:15;;;;;;;;;;;;;;;-145.06;0.00;60892.56;5990665;23;19924;-90
2023/10/09 13:27:55;;;;;;;;;;;;;;;-145.06;0.00;60892.56;5990917;23;19908;-90
2023/10/09 13:30:39;;;;;;;;;;;;;;;-145.06;0.00;60892.56;6005128;23;19908;-88
2023/10/09 13:33:21;;;;;;;;;;;;;;;-145.06;0.00;60892.56;5993970;23;20331;-90
2023/10/09 13:36:04;;;;;;;;;;;;;;;-145.06;0.00;60892.56;5992385;23;19915;-90
2023/10/09 13:38:43;;;;;;;;;;;;;;;-145.06;0.00;60892.56;5991840;23;19971;-89
2023/10/09 13:41:22;;;;;;;;;;;;;;;23.67;0.00;60892.56;5992587;23;20279;-90
2023/10/09 13:44:02;;;;;;;;;;;;;;;23.62;0.00;60892.56;5993414;23;19916;-89
2023/10/09 13:46:41;;;;;;;;;;;;;;;23.59;0.00;60892.56;5993191;23;19912;-89
2023/10/09 13:49:22;;;;;;;;;;;;;;;23.55;0.00;60892.56;5992093;23;20343;-89
2023/10/09 13:52:02;;;;;;;;;;;;;;;-145.06;0.00;60892.56;5992005;23;19912;-89
2023/10/09 13:54:42;;;;;;;;;;;;;;;-145.06;0.00;60892.56;5992742;23;19915;-91
2023/10/09 13:57:30;;;;;;;;;;;;;;;23.53;0.00;60892.56;5992510;23;19916;-90
2023/10/09 14:00:10;;;;;;;;;;;;;;;23.46;0.00;60892.56;5990482;23;20284;-90
2023/10/09 14:02:51;;;;;;;;;;;;;;;23.42;0.00;60892.56;5991408;23;19912;-90
2023/10/09 14:05:30;;;;;;;;;;;;;;;23.38;0.00;60892.56;5992912;23;19931;-91
2023/10/09 14:08:09;;;;;;;;;;;;;;;-145.06;0.00;60892.56;5992183;23;19916;-89
2023/10/09 14:10:49;;;;;;;;;;;;;;;-145.06;0.00;60892.56;5991127;23;20138;-90
2023/10/09 14:13:28;;;;;;;;;;;;;;;-145.06;0.00;60892.56;5992128;23;19912;-90
2023/10/09 14:16:07;;;;;;;;;;;;;;;-145.06;0.00;60892.56;5993003;23;19904;-90
2023/10/09 14:18:46;;;;;;;;;;;;;;;-145.06;0.00;60892.56;5992306;23;19912;-90
2023/10/09 14:21:30;;;;;;;;;;;;;;;-145.06;0.00;60892.56;5993216;23;19912;-90
2023/10/09 14:24:15;;;;;;;;;;;;;;;-145.06;0.00;60892.56;5991738;23;19920;-90
2023/10/09 14:26:56;;;;;;;;;;;;;;;-145.06;0.00;60892.56;5992188;23;20219;-90
2023/10/09 14:29:37;;;;;;;;;;;;;;;-145.06;0.00;60892.56;5993140;23;20354;-90
2023/10/09 14:32:16;;;;;;;;;;;;;;;-145.06;0.00;60892.56;5993132;23;19912;-90
2023/10/09 14:35:00;;;;;;;;;;;;;;;-145.06;0.00;60892.56;6004442;23;19951;-91
2023/10/09 14:37:39;;;;;;;;;;;;;;;-145.06;0.00;60892.56;5994098;23;19940;-90
2023/10/09 14:40:29;;;;;;;;;;;;;;;-145.06;0.00;60892.56;5995230;23;19908;-90
2023/10/09 14:43:18;;;;;;;;;;;;;;;-145.06;0.00;60892.56;5993574;23;19987;-90
2023/10/09 14:45:57;;;;;;;;;;;;;;;-145.06;0.00;60892.56;5993204;23;19908;-90
2023/10/09 14:48:37;;;;;;;;;;;;;;;-145.06;0.00;60892.56;6004909;23;20010;-90
2023/10/09 14:51:16;;;;;;;;;;;;;;;-145.06;0.00;60892.56;5992821;23;20586;-90
2023/10/09 14:53:58;;;;;;;;;;;;;;;-145.06;0.00;60892.56;6003945;23;20275;-90
2023/10/09 14:56:38;;;;;;;;;;;;;;;-145.06;0.00;60892.56;6006431;23;19908;-90
2023/10/09 14:59:19;;;;;;;;;;;;;;;-145.06;0.00;60892.56;6004428;23;19947;-90
2023/10/09 15:01:58;;;;;;;;;;;;;;;-145.06;0.00;60892.56;5993911;23;20150;-89
2023/10/09 15:04:37;;;;;;;;;;;;;;;-145.06;0.00;60892.56;6005615;23;20073;-89
2023/10/09 15:07:20;;;;;;;;;;;;;;;-145.06;0.00;60892.56;5993754;23;19911;-89
2023/10/09 15:10:03;;;;;;;;;;;;;;;-145.06;0.00;60892.56;5994269;23;19916;-90
2023/10/09 15:12:42;;;;;;;;;;;;;;;-145.06;0.00;60892.56;5995120;23;19908;-91
2023/10/09 15:15:25;;;;;;;;;;;;;;;-145.06;0.00;60892.56;6003578;23;19912;-89
2023/10/09 15:18:05;;;;;;;;;;;;;;;-145.06;0.00;60892.56;5994121;23;19912;-91
2023/10/09 15:20:48;;;;;;;;;;;;;;;-145.06;0.00;60892.56;5993757;23;19916;-90
2023/10/09 15:23:27;;;;;;;;;;;;;;;-145.06;0.00;60892.56;5993481;23;20311;-90
2023/10/09 15:26:07;;;;;;;;;;;;;;;-145.06;0.00;60892.56;5995298;23;19908;-89
2023/10/09 15:28:46;;;;;;;;;;;;;;;-145.06;0.00;60892.56;5993973;23;19908;-90
2023/10/09 15:31:26;;;;;;;;;;;;;;;-145.06;0.00;60892.56;6004303;23;19939;-90
2023/10/09 15:34:08;;;;;;;;;;;;;;;-145.06;0.00;60892.56;5994230;23;19979;-90
2023/10/09 15:36:47;;;;;;;;;;;;;;;-145.06;0.00;60892.56;5994265;23;20228;-90
2023/10/09 15:39:26;;;;;;;;;;;;;;;-145.06;0.00;60892.56;5993639;23;19908;-90
2023/10/09 15:42:06;;;;;;;;;;;;;;;-145.06;0.00;60892.56;5992324;23;19912;-88
2023/10/09 15:44:47;;;;;;;;;;;;;;;-145.06;0.00;60892.56;5992945;23;19994;-91
2023/10/09 15:47:26;;;;;;;;;;;;;;;-145.06;0.00;60892.56;5993593;23;19912;-89
2023/10/09 15:50:09;;;;;;;;;;;;;;;-145.06;0.00;60892.56;5992848;23;19978;-90
2023/10/09 15:52:51;;;;;;;;;;;;;;;-145.06;0.00;60892.56;5993198;23;19940;-90
2023/10/09 15:55:30;;;;;;;;;;;;;;;-145.06;0.00;60892.56;5993544;23;19908;-89
2023/10/09 15:58:09;;;;;;;;;;;;;;;-145.06;0.00;60892.56;5994112;23;19939;-91
2023/10/09 16:00:47;;;;;;;;;;;;;;;-145.06;0.00;60892.56;6003270;23;20385;-90
2023/10/09 16:03:27;;;;;;;;;;;;;;;-145.06;0.00;60892.56;5993106;23;19991;-89
2023/10/09 16:06:08;;;;;;;;;;;;;;;-145.06;0.00;60892.56;5994040;23;19979;-90
2023/10/09 16:08:47;;;;;;;;;;;;;;;-145.06;0.00;60892.56;5994125;23;19907;-90